Time;durP1;ratioP1;P1;durP2;ratioP2;P2;SDS_P1;SDS_P2;PMS_P1;PMS_P2;Temp;Humidity;BMP_temperature;BMP_pressure;BME280_temperature;BME280_humidity;BME280_pressure;Samples;Min_cycle;Max_cycle;Signal;HPM_P1;HPM_P2
2021/11/10 00:00:08;;;;;;;17.05;8.40;;;1.90;99.90;;;;;;6228437;28;20045;-85
2021/11/10 00:03:09;;;;;;;12.80;8.60;;;;;;;;;;6199387;28;20041;-86
2021/11/10 00:06:10;;;;;;;11.02;8.23;;;;;;;;;;6220739;28;20116;-84
2021/11/10 00:09:11;;;;;;;15.82;8.23;;;1.90;99.90;;;;;;6209784;28;20571;-86
2021/11/10 00:12:11;;;;;;;14.77;8.70;;;1.70;99.90;;;;;;6209273;28;20033;-87
2021/11/10 00:15:13;;;;;;;12.80;7.60;;;;;;;;;;6200229;28;20041;-87
2021/11/10 00:18:14;;;;;;;12.85;8.07;;;1.70;99.90;;;;;;6209217;28;20033;-87
2021/11/10 00:21:15;;;;;;;12.35;7.47;;;;;;;;;;6198783;28;20037;-86
2021/11/10 00:24:16;;;;;;;13.10;8.15;;;;;;;;;;6185134;28;20399;-86
2021/11/10 00:27:17;;;;;;;14.30;7.35;;;;;;;;;;6184840;28;20448;-86
2021/11/10 00:30:18;;;;;;;16.20;7.75;;;;;;;;;;6184632;28;20082;-85
2021/11/10 00:33:19;;;;;;;12.60;8.27;;;;;;;;;;6184859;28;20490;-86
2021/11/10 00:36:20;;;;;;;13.80;8.02;;;1.70;99.90;;;;;;6200852;28;20041;-85
2021/11/10 00:39:21;;;;;;;13.88;7.88;;;;;;;;;;6184684;28;20038;-83
2021/11/10 00:42:22;;;;;;;10.50;7.88;;;;;;;;;;6184431;28;20578;-85
2021/11/10 00:45:23;;;;;;;13.35;7.63;;;;;;;;;;6184383;28;20141;-86
2021/11/10 00:48:23;;;;;;;17.70;8.35;;;1.50;99.90;;;;;;6184954;28;20041;-85
2021/11/10 00:51:24;;;;;;;18.55;8.20;;;;;;;;;;6200158;28;20050;-85
2021/11/10 00:54:26;;;;;;;13.63;8.63;;;;;;;;;;6184809;28;20038;-86
2021/11/10 00:57:26;;;;;;;11.10;8.27;;;;;;;;;;6184848;28;20060;-85
2021/11/10 01:00:28;;;;;;;13.98;8.57;;;;;;;;;;6189148;28;20034;-87
2021/11/10 01:03:28;;;;;;;17.98;9.80;;;1.70;99.90;;;;;;6189032;28;20137;-86
2021/11/10 01:06:32;;;;;;;12.40;8.48;;;1.90;99.90;;;;;;6204708;28;20060;-86
2021/11/10 01:09:39;;;;;;;14.90;8.05;;;1.70;99.90;;;;;;6205706;28;20042;-85
2021/11/10 01:12:40;;;;;;;13.00;8.85;;;1.80;99.90;;;;;;6189594;28;20048;-87
2021/11/10 01:15:42;;;;;;;14.23;8.50;;;;;;;;;;6204940;28;20041;-86
2021/11/10 01:18:43;;;;;;;11.32;7.93;;;;;;;;;;6188982;28;20108;-86
2021/11/10 01:21:44;;;;;;;14.40;8.70;;;;;;;;;;6189018;28;20427;-86
2021/11/10 01:24:45;;;;;;;12.02;8.23;;;1.70;99.90;;;;;;6188651;28;20030;-87
2021/11/10 01:27:46;;;;;;;14.50;8.30;;;;;;;;;;6205150;28;20045;-88
2021/11/10 01:30:47;;;;;;;14.77;9.02;;;;;;;;;;6188676;28;20069;-87
2021/11/10 01:33:48;;;;;;;14.25;8.65;;;;;;;;;;6188560;28;20853;-85
2021/11/10 01:36:49;;;;;;;12.32;8.05;;;;;;;;;;6204660;28;20045;-86
2021/11/10 01:39:50;;;;;;;12.70;8.57;;;1.60;99.90;;;;;;6187715;28;20128;-86
2021/11/10 01:42:56;;;;;;;14.32;7.47;;;;;;;;;;6204144;28;20034;-87
2021/11/10 01:45:57;;;;;;;13.57;8.38;;;1.80;99.90;;;;;;6188801;28;20399;-86
2021/11/10 01:48:58;;;;;;;12.02;7.55;;;;;;;;;;6204295;28;20046;-86
2021/11/10 01:51:59;;;;;;;14.50;8.10;;;;;;;;;;6187475;28;20054;-85
2021/11/10 01:55:00;;;;;;;11.15;7.45;;;1.30;99.90;;;;;;6187758;28;20030;-89
2021/11/10 01:58:03;;;;;;;13.48;8.55;;;;;;;;;;6187823;28;20496;-89
2021/11/10 02:01:04;;;;;;;10.43;7.57;;;;;;;;;;6187639;28;20101;-89
2021/11/10 02:04:04;;;;;;;16.42;9.82;;;1.60;99.90;;;;;;6187665;28;20037;-87
2021/11/10 02:07:05;;;;;;;14.80;10.07;;;;;;;;;;6204076;28;20034;-90
2021/11/10 02:10:07;;;;;;;13.25;8.23;;;1.80;99.90;;;;;;6186056;28;20046;-86
2021/11/10 02:13:09;;;;;;;9.27;7.32;;;;;;;;;;6203684;28;20134;-87
2021/11/10 02:16:09;;;;;;;18.75;7.55;;;1.60;99.90;;;;;;6187279;28;20537;-87
2021/11/10 02:19:10;;;;;;;13.55;7.90;;;;;;;;;;6186902;28;20038;-86
2021/11/10 02:22:13;;;;;;;13.82;7.95;;;1.40;99.90;;;;;;6187141;28;20092;-86
2021/11/10 02:25:13;;;;;;;;;;;1.80;99.90;;;;;;6187670;28;20070;-87
2021/11/10 02:28:14;;;;;;;10.88;8.02;;;;;;;;;;6219804;28;19987;-87
2021/11/10 02:31:16;;;;;;;14.32;8.63;;;;;;;;;;6187123;28;20034;-85
2021/11/10 02:34:17;;;;;;;15.10;7.95;;;;;;;;;;6187200;28;20069;-87
2021/11/10 02:37:19;;;;;;;12.23;8.05;;;1.50;99.90;;;;;;6186897;28;20659;-86
2021/11/10 02:40:20;;;;;;;13.27;8.73;;;;;;;;;;6203095;28;20145;-86
2021/11/10 02:43:21;;;;;;;14.73;8.40;;;;;;;;;;6186575;28;20400;-87
2021/11/10 02:46:23;;;;;;;14.27;8.85;;;1.50;99.90;;;;;;6186924;28;20058;-89
2021/11/10 02:49:24;;;;;;;17.25;8.82;;;;;;;;;;6186579;28;20399;-86
2021/11/10 02:52:25;;;;;;;11.25;7.80;;;;;;;;;;6186156;28;20042;-87
2021/11/10 02:55:25;;;;;;;9.50;7.07;;;1.70;99.90;;;;;;6186737;28;20408;-87
2021/11/10 02:58:32;;;;;;;14.40;7.40;;;1.60;99.90;;;;;;6186558;28;20038;-86
2021/11/10 03:01:33;;;;;;;13.35;7.70;;;;;;;;;;6186523;28;20453;-89
2021/11/10 03:04:46;;;;;;;10.05;7.28;;;1.70;99.90;;;;;;6202703;28;20041;-86
2021/11/10 03:07:47;;;;;;;11.23;7.95;;;;;;;;;;6185601;28;20057;-88
2021/11/10 03:10:48;;;;;;;15.20;7.53;;;;;;;;;;6185769;28;20034;-88
2021/11/10 03:13:48;;;;;;;13.77;7.40;;;1.60;99.90;;;;;;6185832;28;20034;-86
2021/11/10 03:16:50;;;;;;;13.30;7.90;;;;;;;;;;6186023;28;20073;-87
2021/11/10 03:19:50;;;;;;;11.18;7.63;;;1.50;99.90;;;;;;6185764;28;20473;-87
2021/11/10 03:22:51;;;;;;;14.93;8.45;;;1.50;99.90;;;;;;6201694;28;20354;-87
2021/11/10 03:25:52;;;;;;;11.80;7.35;;;;;;;;;;6185762;28;20061;-90
2021/11/10 03:28:53;;;;;;;12.63;6.88;;;1.40;99.90;;;;;;6185851;28;20483;-87
2021/11/10 03:31:54;;;;;;;11.02;7.38;;;1.50;99.90;;;;;;6201370;28;20069;-87
2021/11/10 03:34:55;;;;;;;13.73;8.18;;;;;;;;;;6201483;28;20041;-87
2021/11/10 03:37:55;;;;;;;12.18;8.52;;;;;;;;;;6185508;28;20034;-87
2021/11/10 03:40:57;;;;;;;11.52;7.72;;;;;;;;;;6201954;28;20081;-86
2021/11/10 03:43:58;;;;;;;15.32;8.82;;;;;;;;;;6188838;28;20034;-87
2021/11/10 03:46:59;;;;;;;11.07;7.90;;;;;;;;;;6185304;28;20511;-87
2021/11/10 03:50:00;;;;;;;13.38;8.20;;;;;;;;;;6185053;28;20056;-87
2021/11/10 03:53:01;;;;;;;12.05;8.63;;;;;;;;;;6185317;28;20046;-88
2021/11/10 03:56:02;;;;;;;22.88;12.57;;;1.40;99.90;;;;;;6185441;28;20034;-88
2021/11/10 03:59:03;;;;;;;11.55;8.25;;;;;;;;;;6185342;28;20038;-87
2021/11/10 04:02:05;;;;;;;14.95;7.45;;;1.40;99.90;;;;;;6201939;28;20042;-89
2021/11/10 04:05:05;;;;;;;12.32;7.80;;;1.20;99.90;;;;;;6185238;28;20905;-88
2021/11/10 04:08:06;;;;;;;11.40;8.02;;;;;;;;;;6201327;28;20119;-86
2021/11/10 04:11:07;;;;;;;14.90;8.52;;;;;;;;;;6207995;28;20033;-89
2021/11/10 04:14:08;;;;;;;20.80;9.38;;;;;;;;;;6184993;28;20121;-86
2021/11/10 04:17:09;;;;;;;15.07;8.45;;;1.30;99.90;;;;;;6184777;28;20034;-87
2021/11/10 04:20:10;;;;;;;12.85;7.93;;;1.00;99.90;;;;;;6201569;28;20042;-89
2021/11/10 04:23:11;;;;;;;15.40;9.13;;;;;;;;;;6184607;28;20101;-88
2021/11/10 04:26:12;;;;;;;13.02;8.50;;;1.10;99.90;;;;;;6184631;28;20033;-87
2021/11/10 04:29:13;;;;;;;14.77;7.85;;;;;;;;;;6184966;28;20488;-87
2021/11/10 04:32:14;;;;;;;9.60;7.43;;;;;;;;;;6201125;28;20037;-85
2021/11/10 04:35:15;;;;;;;10.57;7.55;;;;;;;;;;6189687;28;20530;-89
2021/11/10 04:38:16;;;;;;;11.25;7.13;;;;;;;;;;6189485;28;20042;-87
2021/11/10 04:41:18;;;;;;;12.23;8.00;;;;;;;;;;6189547;28;20034;-89
2021/11/10 04:44:19;;;;;;;14.65;8.32;;;;;;;;;;6189302;28;20128;-86
2021/11/10 04:47:20;;;;;;;12.50;8.27;;;;;;;;;;6188778;28;20038;-86
2021/11/10 04:50:21;;;;;;;13.07;7.13;;;;;;;;;;6205420;28;20054;-86
2021/11/10 04:53:22;;;;;;;11.80;8.35;;;;;;;;;;6188658;28;20077;-86
2021/11/10 04:56:23;;;;;;;11.25;7.78;;;;;;;;;;6189451;28;20404;-89
2021/11/10 04:59:23;;;;;;;13.73;8.10;;;1.20;99.90;;;;;;6188935;28;20034;-86
2021/11/10 05:02:25;;;;;;;14.35;8.40;;;;;;;;;;6205004;28;20377;-86
2021/11/10 05:05:26;;;;;;;13.27;8.55;;;;;;;;;;6188732;28;20168;-86
2021/11/10 05:08:26;;;;;;;18.27;8.95;;;;;;;;;;6205372;28;20497;-88
2021/11/10 05:11:27;;;;;;;18.90;10.80;;;1.30;99.90;;;;;;6189502;28;20033;-88
2021/11/10 05:14:28;;;;;;;13.82;8.88;;;;;;;;;;6188652;28;20065;-90
2021/11/10 05:17:29;;;;;;;19.25;11.63;;;;;;;;;;6188919;28;20042;-86
2021/11/10 05:20:30;;;;;;;15.13;8.80;;;;;;;;;;6189019;28;20682;-85
2021/11/10 05:23:31;;;;;;;14.48;9.07;;;;;;;;;;6188436;28;20469;-88
2021/11/10 05:26:32;;;;;;;14.60;7.80;;;1.70;99.90;;;;;;6188248;28;20093;-87
2021/11/10 05:29:33;;;;;;;12.80;9.43;;;;;;;;;;6204213;28;20145;-86
2021/11/10 05:32:34;;;;;;;13.30;8.55;;;;;;;;;;6204034;28;20077;-87
2021/11/10 05:35:35;;;;;;;13.77;8.82;;;;;;;;;;6187893;28;20033;-90
2021/11/10 05:38:35;;;;;;;15.60;9.52;;;1.80;99.90;;;;;;6204508;28;20488;-89
2021/11/10 05:41:36;;;;;;;12.25;8.50;;;;;;;;;;6189121;28;20041;-86
2021/11/10 05:44:37;;;;;;;13.82;8.57;;;;;;;;;;6189185;28;20038;-87
2021/11/10 05:47:38;;;;;;;53.35;28.98;;;;;;;;;;6189199;28;20038;-84
2021/11/10 05:51:25;;;;;;;13.43;8.80;;;2.20;99.90;;;;;;6301069;27;20875;-80
2021/11/10 05:54:26;;;;;;;8.55;6.72;;;;;;;;;;6289646;28;20032;-82
2021/11/10 05:57:27;;;;;;;10.82;7.90;;;2.10;99.90;;;;;;6290059;28;20025;-86
2021/11/10 06:00:28;;;;;;;11.90;7.30;;;;;;;;;;6273153;28;20094;-86
2021/11/10 06:03:30;;;;;;;35.45;22.40;;;2.00;99.90;;;;;;6273280;28;20059;-86
2021/11/10 06:06:31;;;;;;;;;;;2.10;99.90;;;;;;6306249;28;20033;-88
2021/11/10 06:09:34;;;;;;;15.48;10.15;;;1.80;99.90;;;;;;6307021;28;20335;-91
2021/11/10 06:12:35;;;;;;;15.40;10.02;;;;;;;;;;6289577;28;20394;-87
2021/11/10 06:15:36;;;;;;;10.75;7.00;;;;;;;;;;6272538;28;20025;-88
2021/11/10 06:18:37;;;;;;;13.35;7.38;;;1.90;99.90;;;;;;6271505;28;20176;-87
2021/11/10 06:21:38;;;;;;;19.35;10.80;;;1.90;99.90;;;;;;6271480;28;20043;-84
2021/11/10 06:24:39;;;;;;;15.80;13.45;;;;;;;;;;6255121;28;20021;-86
2021/11/10 06:27:39;;;;;;;14.63;8.45;;;1.80;99.90;;;;;;6271735;28;20117;-83
2021/11/10 06:30:40;;;;;;;12.60;7.78;;;3.40;99.90;;;;;;6254261;28;20059;-85
2021/11/10 06:33:41;;;;;;;16.00;8.35;;;2.70;99.90;;;;;;6271188;28;20059;-86
2021/11/10 06:36:41;;;;;;;13.65;8.05;;;1.80;99.90;;;;;;6271218;28;20035;-86
2021/11/10 06:39:42;;;;;;;11.93;8.30;;;;;;;;;;6254734;28;20139;-90
2021/11/10 06:42:43;;;;;;;14.48;7.85;;;1.90;99.90;;;;;;6272426;28;20021;-86
2021/11/10 06:45:44;;;;;;;11.07;7.85;;;1.90;99.90;;;;;;6255187;28;20048;-83
2021/11/10 06:48:45;;;;;;;10.75;7.70;;;1.80;99.90;;;;;;6253863;28;20147;-86
2021/11/10 06:51:45;;;;;;;9.60;7.75;;;4.00;99.90;;;;;;6254364;28;20036;-82
2021/11/10 06:54:46;;;;;;;13.15;8.38;;;3.20;99.90;;;;;;6270890;28;20036;-83
2021/11/10 06:57:47;;;;;;;14.25;8.27;;;1.60;99.90;;;;;;6270230;28;20060;-82
2021/11/10 07:00:48;;;;;;;11.85;7.63;;;4.30;99.90;;;;;;6264837;28;20040;-83
2021/11/10 07:03:48;;;;;;;12.77;6.93;;;3.50;99.90;;;;;;6253810;28;20056;-84
2021/11/10 07:06:49;;;;;;;8.15;6.38;;;2.30;99.90;;;;;;6269623;28;20482;-83
2021/11/10 07:09:49;;;;;;;14.25;7.85;;;3.20;99.90;;;;;;6253390;28;20040;-85
2021/11/10 07:12:50;;;;;;;13.70;7.97;;;2.50;99.90;;;;;;6254135;28;20043;-82
2021/11/10 07:15:51;;;;;;;9.20;7.45;;;2.00;99.90;;;;;;6252964;28;20670;-85
2021/11/10 07:18:51;;;;;;;10.20;7.63;;;4.40;99.90;;;;;;6237060;28;20033;-85
2021/11/10 07:21:52;;;;;;;10.38;7.45;;;2.50;99.90;;;;;;6236700;28;20167;-85
2021/11/10 07:24:53;;;;;;;9.38;7.25;;;3.70;99.90;;;;;;6236592;28;20032;-85
2021/11/10 07:27:53;;;;;;;9.15;7.10;;;3.60;99.90;;;;;;6253100;28;20083;-84
2021/11/10 07:30:54;;;;;;;11.60;7.65;;;2.20;99.90;;;;;;6236529;28;20104;-85
2021/11/10 07:33:55;;;;;;;12.32;8.90;;;3.30;99.90;;;;;;6236128;28;20425;-85
2021/11/10 07:36:55;;;;;;;11.60;8.50;;;4.50;99.90;;;;;;6236493;28;20033;-85
2021/11/10 07:39:56;;;;;;;15.43;8.38;;;2.80;99.90;;;;;;6252880;28;20388;-84
2021/11/10 07:42:57;;;;;;;11.30;8.60;;;2.40;99.90;;;;;;6236323;28;20060;-85
2021/11/10 07:46:02;;;;;;;8.57;6.70;;;2.60;99.90;;;;;;6236835;28;20024;-85
2021/11/10 07:49:02;;;;;;;15.60;7.65;;;2.30;99.90;;;;;;6238377;28;20052;-87
2021/11/10 07:52:03;;;;;;;11.95;7.88;;;2.30;99.90;;;;;;6235157;28;20059;-88
2021/11/10 07:55:04;;;;;;;13.55;8.80;;;2.60;99.90;;;;;;6236093;28;20025;-82
2021/11/10 07:58:05;;;;;;;16.02;8.52;;;2.50;99.90;;;;;;6232954;28;20426;-87
2021/11/10 08:01:06;;;;;;;13.23;8.68;;;3.50;99.90;;;;;;6251423;28;20017;-86
2021/11/10 08:04:07;;;;;;;14.40;8.35;;;4.50;99.90;;;;;;6236047;28;20040;-87
2021/11/10 08:07:07;;;;;;;15.48;8.68;;;5.40;99.90;;;;;;6235703;28;20037;-87
2021/11/10 08:10:09;;;;;;;9.98;8.13;;;3.20;99.90;;;;;;6235654;28;20032;-87
2021/11/10 08:13:10;;;;;;;11.60;7.90;;;5.00;99.90;;;;;;6234700;28;20044;-86
2021/11/10 08:16:10;;;;;;;12.32;9.07;;;4.30;99.90;;;;;;6235637;28;20455;-86
2021/11/10 08:19:11;;;;;;;13.55;9.35;;;3.70;99.90;;;;;;6235308;28;20052;-85
2021/11/10 08:22:12;;;;;;;16.17;9.15;;;3.60;99.90;;;;;;6251764;28;20104;-86
2021/11/10 08:25:15;;;;;;;16.40;11.27;;;4.80;99.90;;;;;;6251774;28;20463;-85
2021/11/10 08:28:15;;;;;;;17.00;11.25;;;5.80;99.90;;;;;;6235120;28;20108;-86
2021/11/10 08:31:16;;;;;;;20.33;9.90;;;4.30;99.90;;;;;;6234889;28;20074;-85
2021/11/10 08:34:17;;;;;;;11.75;8.52;;;5.70;99.90;;;;;;6235609;28;20040;-87
2021/11/10 08:37:17;;;;;;;7.88;6.85;;;5.00;99.90;;;;;;6251284;28;20077;-83
2021/11/10 08:40:18;;;;;;;11.68;7.00;;;5.00;99.90;;;;;;6234793;28;20025;-85
2021/11/10 08:43:19;;;;;;;10.50;6.85;;;6.60;99.90;;;;;;6251336;28;20029;-84
2021/11/10 08:46:21;;;;;;;10.80;9.27;;;5.40;99.90;;;;;;6251132;28;20619;-83
2021/11/10 08:49:22;;;;;;;11.73;8.40;;;5.70;99.90;;;;;;6234899;28;20135;-84
2021/11/10 08:52:23;;;;;;;25.45;19.00;;;7.70;99.90;;;;;;6234563;28;20029;-80
2021/11/10 08:55:24;;;;;;;26.83;17.48;;;7.60;99.90;;;;;;6234761;28;20119;-84
2021/11/10 08:58:25;;;;;;;22.48;16.13;;;8.40;99.90;;;;;;6234170;28;20057;-87
2021/11/10 09:01:26;;;;;;;15.93;12.40;;;9.60;99.90;;;;;;6234565;28;20455;-85
2021/11/10 09:04:27;;;;;;;9.30;6.78;;;;;;;;;;6234204;28;20029;-86
2021/11/10 09:07:28;;;;;;;8.00;5.72;;;10.40;99.90;;;;;;6250017;28;20031;-87
2021/11/10 09:10:32;;;;;;;7.53;5.50;;;10.40;99.90;;;;;;6233116;28;20044;-87
2021/11/10 09:13:33;;;;;;;11.13;5.97;;;10.40;99.90;;;;;;6233604;28;20119;-86
2021/11/10 09:16:34;;;;;;;11.70;7.25;;;;;;;;;;6234416;28;20128;-86
2021/11/10 09:19:35;;;;;;;8.65;7.07;;;;;;;;;;6250439;28;20112;-86
2021/11/10 09:22:36;;;;;;;13.50;8.20;;;9.50;99.90;;;;;;6267151;28;20040;-85
2021/11/10 09:25:37;;;;;;;11.38;8.32;;;;;;;;;;6266786;28;20067;-87
2021/11/10 09:28:38;;;;;;;11.88;8.70;;;9.70;99.90;;;;;;6251161;28;20107;-86
2021/11/10 09:31:40;;;;;;;13.30;9.57;;;;;;;;;;6234452;28;20063;-86
2021/11/10 09:34:41;;;;;;;11.30;8.18;;;10.10;99.90;;;;;;6267327;28;20029;-87
2021/11/10 09:37:42;;;;;;;9.65;8.18;;;10.00;99.90;;;;;;6251075;28;20103;-86
2021/11/10 09:40:43;;;;;;;10.75;6.90;;;9.80;99.90;;;;;;6234382;28;20029;-85
2021/11/10 09:43:44;;;;;;;9.80;7.20;;;9.80;99.90;;;;;;6233583;28;20037;-86
2021/11/10 09:46:44;;;;;;;10.18;7.03;;;9.50;99.90;;;;;;6249866;28;20360;-85
2021/11/10 09:49:46;;;;;;;7.97;6.47;;;9.50;99.90;;;;;;6233202;28;20065;-86
2021/11/10 09:52:47;;;;;;;10.55;7.80;;;9.80;99.90;;;;;;6250409;28;20095;-84
2021/11/10 09:55:48;;;;;;;11.40;7.50;;;9.20;99.90;;;;;;6233642;28;20467;-85
2021/11/10 09:58:50;;;;;;;11.93;8.70;;;9.60;99.90;;;;;;6233731;28;20036;-85
2021/11/10 10:01:51;;;;;;;14.38;9.63;;;9.00;99.90;;;;;;6233305;28;20025;-85
2021/11/10 10:04:55;;;;;;;12.65;8.85;;;9.30;99.90;;;;;;6249346;28;20078;-85
2021/11/10 10:07:56;;;;;;;16.10;8.73;;;9.70;99.90;;;;;;6233588;28;20025;-85
2021/11/10 10:10:57;;;;;;;13.55;9.32;;;8.80;99.90;;;;;;6249852;28;20044;-85
2021/11/10 10:13:57;;;;;;;12.75;9.05;;;9.20;99.90;;;;;;6248895;28;20042;-87
2021/11/10 10:17:01;;;;;;;15.18;9.07;;;9.00;99.90;;;;;;6249167;28;20044;-86
2021/11/10 10:20:03;;;;;;;16.63;10.35;;;10.20;99.90;;;;;;6233114;28;20036;-86
2021/11/10 10:23:17;;;;;;;14.20;9.48;;;9.10;99.90;;;;;;6233388;28;20040;-86
2021/11/10 10:26:23;;;;;;;14.15;9.63;;;9.20;99.90;;;;;;6248753;28;20447;-86
2021/11/10 10:29:24;;;;;;;10.95;9.25;;;9.10;99.90;;;;;;6230365;28;20119;-86
2021/11/10 10:32:37;;;;;;;16.42;9.93;;;9.10;99.90;;;;;;6265680;28;20025;-86
2021/11/10 10:35:42;;;;;;;16.45;11.15;;;9.50;99.90;;;;;;6233798;28;20043;-88
2021/11/10 10:38:51;;;;;;;19.60;11.63;;;9.80;99.90;;;;;;6255206;28;20111;-86
2021/11/10 10:41:52;;;;;;;16.40;11.88;;;9.40;99.90;;;;;;6255025;28;20025;-86
2021/11/10 10:44:55;;;;;;;20.95;12.82;;;9.50;99.90;;;;;;6238222;28;20056;-86
2021/11/10 10:48:00;;;;;;;;;;;9.60;99.90;;;;;;6239091;28;20063;-87
2021/11/10 10:51:05;;;;;;;18.20;12.00;;;9.80;99.90;;;;;;6254969;28;19924;-88
2021/11/10 10:54:06;;;;;;;19.02;12.80;;;10.40;99.90;;;;;;6239381;28;20054;-87
2021/11/10 10:57:09;;;;;;;19.10;12.10;;;10.50;99.90;;;;;;6254690;28;20442;-86
2021/11/10 11:00:10;;;;;;;17.30;12.25;;;10.60;99.90;;;;;;6255683;28;20521;-85
2021/11/10 11:03:17;;;;;;;22.15;12.98;;;10.70;99.90;;;;;;6237749;28;20029;-86
2021/11/10 11:06:35;;;;;;;20.27;13.45;;;10.60;99.90;;;;;;6270546;28;20064;-85
2021/11/10 11:09:50;;;;;;;20.10;12.88;;;10.50;99.90;;;;;;6238992;28;20043;-87
2021/11/10 11:12:53;;;;;;;20.23;13.55;;;10.40;99.90;;;;;;6254083;28;20040;-86
2021/11/10 11:16:08;;;;;;;15.70;12.00;;;10.30;99.90;;;;;;6239363;28;20025;-88
2021/11/10 11:19:18;;;;;;;18.10;11.70;;;10.40;99.90;;;;;;6239157;28;20486;-85
2021/11/10 11:22:19;;;;;;;20.60;11.98;;;10.50;99.90;;;;;;6237409;28;20025;-86
2021/11/10 11:25:22;;;;;;;16.85;11.73;;;10.40;99.90;;;;;;6237303;28;20064;-86
2021/11/10 11:28:24;;;;;;;15.38;10.68;;;10.30;99.90;;;;;;6254507;28;20032;-87
2021/11/10 11:31:33;;;;;;;;;;;11.40;99.90;;;;;;6236013;28;20417;-86
2021/11/10 11:35:14;;;;;;;17.77;12.27;;;10.20;99.90;;;;;;6269485;28;20355;-86
2021/11/10 11:38:19;;;;;;;15.95;10.98;;;10.10;99.90;;;;;;6270467;28;20123;-86
2021/11/10 11:41:23;;;;;;;20.27;12.32;;;10.00;99.90;;;;;;6236422;28;20156;-86
2021/11/10 11:44:24;;;;;;;19.27;12.40;;;10.00;99.90;;;;;;6237223;28;20087;-86
2021/11/10 11:47:25;;;;;;;22.80;12.95;;;10.10;99.90;;;;;;6253270;28;20356;-87
2021/11/10 11:50:26;;;;;;;22.53;14.17;;;9.90;99.90;;;;;;6236507;28;20057;-86
2021/11/10 11:53:27;;;;;;;20.92;13.10;;;9.90;99.90;;;;;;6266686;28;20279;-86
2021/11/10 11:56:27;;;;;;;19.88;12.82;;;9.80;99.90;;;;;;6235539;28;20108;-87
2021/11/10 11:59:28;;;;;;;20.73;12.18;;;9.90;99.90;;;;;;6252316;28;20029;-84
2021/11/10 12:02:37;;;;;;;21.60;13.07;;;9.90;99.90;;;;;;6235656;28;20060;-83
2021/11/10 12:05:37;;;;;;;18.95;12.70;;;10.00;99.90;;;;;;6235750;28;20036;-82
2021/11/10 12:08:41;;;;;;;21.23;12.10;;;9.80;99.90;;;;;;6235363;28;20074;-83
2021/11/10 12:11:42;;;;;;;21.17;13.40;;;9.90;99.90;;;;;;6252276;28;20040;-83
2021/11/10 12:14:55;;;;;;;20.27;13.20;;;9.80;99.90;;;;;;6268134;28;20064;-82
2021/11/10 12:18:06;;;;;;;21.60;14.43;;;8.90;99.90;;;;;;6253233;28;20060;-83
2021/11/10 12:21:06;;;;;;;23.27;14.82;;;9.40;99.90;;;;;;6268658;28;20043;-83
2021/11/10 12:24:12;;;;;;;21.67;14.45;;;10.20;99.90;;;;;;6235191;28;20025;-83
2021/11/10 12:27:32;;;;;;;20.20;14.30;;;9.60;99.90;;;;;;6268287;28;20044;-81
2021/11/10 12:30:33;;;;;;;18.77;12.95;;;;;;;;;;6269341;28;20522;-83
2021/11/10 12:33:34;;;;;;;19.02;13.48;;;;;;;;;;6267965;28;20024;-82
2021/11/10 12:36:54;;;;;;;25.52;15.75;;;9.10;99.90;;;;;;6251802;28;20095;-83
2021/11/10 12:40:10;;;;;;;18.45;13.35;;;9.00;99.90;;;;;;6251121;28;20550;-83
2021/11/10 12:43:12;;;;;;;23.52;14.90;;;9.10;99.90;;;;;;6269216;28;20127;-83
2021/11/10 12:46:22;;;;;;;22.13;14.40;;;8.90;99.90;;;;;;6267669;28;20028;-83
2021/11/10 12:49:23;;;;;;;20.98;14.60;;;8.90;99.90;;;;;;6250783;28;20110;-83
2021/11/10 12:52:24;;;;;;;23.75;14.73;;;9.10;99.90;;;;;;6250950;28;20082;-82
2021/11/10 12:55:26;;;;;;;20.35;14.90;;;8.90;99.90;;;;;;6267963;28;20029;-82
2021/11/10 12:58:27;;;;;;;20.30;15.20;;;8.80;99.90;;;;;;6250384;28;20383;-82
2021/11/10 13:01:28;;;;;;;20.83;14.45;;;8.80;99.90;;;;;;6251108;28;20033;-83
2021/11/10 13:04:30;;;;;;;20.02;14.32;;;8.80;99.90;;;;;;6250482;28;20025;-82
2021/11/10 13:07:34;;;;;;;22.57;14.13;;;9.00;99.90;;;;;;6234748;28;20029;-82
2021/11/10 13:10:34;;;;;;;19.80;14.30;;;9.30;99.90;;;;;;6266910;28;20544;-85
2021/11/10 13:13:35;;;;;;;25.98;15.10;;;8.90;99.90;;;;;;6250559;28;20053;-82
2021/11/10 13:16:59;;;;;;;19.75;14.65;;;9.10;99.90;;;;;;6251258;28;20032;-82
2021/11/10 13:20:05;;;;;;;20.80;15.85;;;8.80;99.90;;;;;;6253576;28;20530;-83
2021/11/10 13:23:05;;;;;;;19.65;14.65;;;8.80;99.90;;;;;;6266694;28;20029;-83
2021/11/10 13:26:09;;;;;;;21.58;15.73;;;9.60;99.90;;;;;;6267320;28;20029;-82
2021/11/10 13:29:10;;;;;;;18.17;14.70;;;8.70;99.90;;;;;;6234097;28;20083;-83
2021/11/10 13:32:12;;;;;;;22.42;15.18;;;8.70;99.90;;;;;;6266570;28;20036;-82
2021/11/10 13:35:13;;;;;;;;;;;8.70;99.90;;;;;;6251304;28;20078;-82
2021/11/10 13:38:13;;;;;;;23.35;15.93;;;8.70;99.90;;;;;;6250294;28;20487;-83
2021/11/10 13:41:33;;;;;;;20.30;16.55;;;8.70;99.90;;;;;;6250209;28;20029;-83
2021/11/10 13:44:35;;;;;;;20.30;15.05;;;8.70;99.90;;;;;;6266796;28;20029;-80
2021/11/10 13:47:36;;;;;;;24.55;15.63;;;8.50;99.90;;;;;;6232751;28;20021;-83
2021/11/10 13:50:40;;;;;;;23.38;15.25;;;8.70;99.90;;;;;;6232795;28;20085;-83
2021/11/10 13:53:41;;;;;;;22.83;15.70;;;8.40;99.90;;;;;;6249897;28;20581;-83
2021/11/10 13:56:52;;;;;;;25.73;16.83;;;8.30;99.90;;;;;;6249757;28;20025;-83
2021/11/10 14:00:05;;;;;;;22.42;15.93;;;8.20;99.90;;;;;;6249723;28;20457;-83
2021/11/10 14:03:06;;;;;;;31.42;20.63;;;8.10;99.90;;;;;;6251307;28;20029;-83
2021/11/10 14:06:10;;;;;;;31.08;23.50;;;8.00;99.90;;;;;;6233191;28;20033;-83
2021/11/10 14:09:11;;;;;;;25.13;18.83;;;8.00;99.90;;;;;;6233491;28;20040;-85
2021/11/10 14:12:21;;;;;;;21.40;17.02;;;8.10;99.90;;;;;;6252142;28;20025;-81
2021/11/10 14:15:36;;;;;;;21.55;16.83;;;8.40;99.90;;;;;;6269578;28;20064;-85
2021/11/10 14:18:36;;;;;;;25.25;17.02;;;8.20;99.90;;;;;;6253479;28;20368;-86
2021/11/10 14:21:37;;;;;;;21.05;16.23;;;8.00;99.90;;;;;;6237689;28;20037;-84
2021/11/10 14:24:44;;;;;;;28.08;17.10;;;8.10;99.90;;;;;;6254120;28;20386;-85
2021/11/10 14:27:45;;;;;;;23.55;16.40;;;8.30;99.90;;;;;;6253957;28;20037;-84
2021/11/10 14:30:54;;;;;;;27.20;15.88;;;8.00;99.90;;;;;;6254148;28;20356;-85
2021/11/10 14:34:01;;;;;;;24.15;16.02;;;7.90;99.90;;;;;;6254946;28;20059;-86
2021/11/10 14:37:05;;;;;;;26.25;19.02;;;8.40;99.90;;;;;;6253405;28;20036;-87
2021/11/10 14:40:28;;;;;;;20.50;16.17;;;7.80;99.90;;;;;;6238739;28;20044;-85
2021/11/10 14:43:37;;;;;;;31.90;18.23;;;7.60;99.90;;;;;;6254447;28;20040;-84
2021/11/10 14:46:39;;;;;;;20.88;16.58;;;7.60;99.90;;;;;;6252552;28;20043;-84
2021/11/10 14:49:40;;;;;;;28.05;17.30;;;7.60;99.90;;;;;;6251984;28;20096;-84
2021/11/10 14:52:41;;;;;;;25.88;16.80;;;7.60;99.90;;;;;;6251912;28;20031;-85
2021/11/10 14:55:43;;;;;;;25.90;15.63;;;8.40;99.90;;;;;;6235371;28;20493;-83
2021/11/10 14:58:56;;;;;;;25.08;16.88;;;8.20;99.90;;;;;;6251146;28;20029;-84
2021/11/10 15:02:09;;;;;;;23.10;17.13;;;7.40;99.90;;;;;;6253828;28;20025;-85
2021/11/10 15:05:11;;;;;;;25.20;17.50;;;7.30;99.90;;;;;;6253211;28;20029;-84
2021/11/10 15:08:12;;;;;;;21.47;17.00;;;7.30;99.90;;;;;;6250017;28;20025;-84
2021/11/10 15:11:13;;;;;;;30.20;16.70;;;;;;;;;;6234095;28;20060;-85
2021/11/10 15:14:39;;;;;;;20.08;15.45;;;7.20;99.90;;;;;;6269616;28;20379;-84
2021/11/10 15:17:40;;;;;;;30.02;17.77;;;7.10;99.90;;;;;;6253945;28;20058;-84
2021/11/10 15:20:40;;;;;;;24.38;16.95;;;7.30;99.90;;;;;;6269823;28;20036;-84
2021/11/10 15:23:42;;;;;;;24.35;16.30;;;7.00;99.90;;;;;;6252113;28;20040;-84
2021/11/10 15:26:43;;;;;;;28.10;16.70;;;6.80;99.90;;;;;;6269216;28;20017;-82
2021/11/10 15:29:44;;;;;;;24.65;17.02;;;6.70;99.90;;;;;;6269563;28;20036;-83
2021/11/10 15:32:54;;;;;;;24.00;17.08;;;6.90;99.90;;;;;;6236304;28;20395;-84
2021/11/10 15:35:55;;;;;;;26.98;18.10;;;6.80;99.90;;;;;;6236597;28;20059;-83
2021/11/10 15:38:56;;;;;;;29.92;18.92;;;;;;;;;;6235641;28;20475;-82
2021/11/10 15:41:57;;;;;;;26.40;16.70;;;;;;;;;;6268748;28;20068;-85
2021/11/10 15:44:58;;;;;;;34.40;21.55;;;;;;;;;;6268677;28;20025;-83
2021/11/10 15:47:59;;;;;;;26.52;18.83;;;6.70;99.90;;;;;;6268872;28;20474;-83
2021/11/10 15:50:59;;;;;;;32.30;17.13;;;6.50;99.90;;;;;;6270057;28;20114;-86
2021/11/10 15:54:00;;;;;;;31.10;17.48;;;6.70;99.90;;;;;;6235902;28;20391;-81
2021/11/10 15:57:01;;;;;;;27.50;18.58;;;6.50;99.90;;;;;;6234261;28;20037;-82
2021/11/10 16:00:03;;;;;;;22.25;17.85;;;6.40;99.90;;;;;;6252188;28;20401;-80
2021/11/10 16:03:04;;;;;;;28.42;18.08;;;6.30;99.90;;;;;;6252485;28;20062;-81
2021/11/10 16:06:07;;;;;;;27.85;17.30;;;6.40;99.90;;;;;;6251254;28;20083;-82
2021/11/10 16:09:10;;;;;;;27.65;17.10;;;6.60;99.90;;;;;;6235387;28;20044;-82
2021/11/10 16:12:10;;;;;;;26.85;18.95;;;6.40;99.90;;;;;;6269303;28;20036;-82
2021/11/10 16:15:11;;;;;;;29.30;17.98;;;6.40;99.90;;;;;;6268144;28;20044;-81
2021/11/10 16:18:12;;;;;;;31.05;17.67;;;6.60;99.90;;;;;;6251473;28;20100;-81